Time;durP1;ratioP1;P1;durP2;ratioP2;P2;SDS_P1;SDS_P2;PMS_P1;PMS_P2;Temp;Humidity;BMP_temperature;BMP_pressure;BME280_temperature;BME280_humidity;BME280_pressure;Samples;Min_cycle;Max_cycle;Signal;HPM_P1;HPM_P2
2022/01/15 00:01:40;;;;;;;45.30;18.42;;;0.60;99.90;;;;;;5071767;28;20023;-51
2022/01/15 00:04:06;;;;;;;58.25;20.13;;;0.60;99.90;;;;;;5071945;28;20392;-49
2022/01/15 00:06:32;;;;;;;47.97;17.67;;;0.60;99.90;;;;;;5071629;28;20032;-48
2022/01/15 00:08:57;;;;;;;46.05;16.60;;;0.60;99.90;;;;;;5071547;28;20028;-56
2022/01/15 00:11:23;;;;;;;64.40;18.92;;;0.70;99.90;;;;;;5071062;28;20064;-50
2022/01/15 00:13:56;;;;;;;70.68;20.05;;;0.70;99.90;;;;;;5053633;28;20450;-53
2022/01/15 00:16:45;;;;;;;79.85;19.88;;;0.70;99.90;;;;;;5071567;28;20048;-52
2022/01/15 00:19:14;;;;;;;64.32;19.15;;;0.70;99.90;;;;;;5074895;28;20021;-49
2022/01/15 00:21:39;;;;;;;87.95;19.95;;;0.70;99.90;;;;;;5078003;28;20048;-53
2022/01/15 00:24:05;;;;;;;66.85;19.33;;;0.70;99.90;;;;;;5078052;28;20032;-51
2022/01/15 00:26:31;;;;;;;89.53;20.38;;;0.80;99.90;;;;;;5077937;28;20029;-52
2022/01/15 00:28:56;;;;;;;63.38;20.30;;;0.80;99.90;;;;;;5077862;28;20024;-54
2022/01/15 00:31:22;;;;;;;75.20;20.58;;;0.90;99.90;;;;;;5059838;28;20478;-51
2022/01/15 00:33:48;;;;;;;83.40;19.20;;;0.90;99.90;;;;;;5077972;28;20028;-49
2022/01/15 00:36:15;;;;;;;79.40;21.85;;;1.00;99.90;;;;;;5077917;28;20096;-47
2022/01/15 00:38:42;;;;;;;76.97;19.77;;;1.00;99.90;;;;;;5077928;28;20477;-49
2022/01/15 00:41:07;;;;;;;77.45;21.13;;;1.00;99.90;;;;;;5077538;28;20024;-53
2022/01/15 00:43:33;;;;;;;80.38;21.23;;;1.00;99.90;;;;;;5078182;28;20097;-57
2022/01/15 00:45:58;;;;;;;54.40;17.95;;;1.00;99.90;;;;;;5060039;28;20026;-47
2022/01/15 00:48:25;;;;;;;71.30;19.10;;;1.00;99.90;;;;;;5101505;23;20051;-53
2022/01/15 00:50:51;;;;;;;65.25;20.83;;;1.00;99.90;;;;;;5117883;28;20020;-53
2022/01/15 00:53:16;;;;;;;71.35;18.95;;;1.00;99.90;;;;;;5118384;28;20518;-52
2022/01/15 00:55:42;;;;;;;63.50;18.13;;;1.00;99.90;;;;;;5100092;28;20491;-52
2022/01/15 00:58:08;;;;;;;60.78;20.30;;;1.00;99.90;;;;;;5118329;28;20161;-50
2022/01/15 01:00:34;;;;;;;50.95;20.60;;;1.00;99.90;;;;;;5118006;28;20023;-49
2022/01/15 01:02:59;;;;;;;58.03;19.35;;;1.00;99.90;;;;;;5117674;28;20479;-51
2022/01/15 01:05:25;;;;;;;62.42;17.77;;;1.00;99.90;;;;;;5111154;28;20039;-50
2022/01/15 01:07:51;;;;;;;55.80;20.75;;;1.00;99.90;;;;;;5097778;28;20020;-55
2022/01/15 01:23:35;;;;;;;61.42;18.20;;;1.10;99.90;;;;;;5097739;28;20394;-50
2022/01/15 01:26:22;;;;;;;66.22;17.92;;;1.10;99.90;;;;;;5079598;28;20089;-51
2022/01/15 01:28:57;;;;;;;61.95;18.45;;;1.10;99.90;;;;;;5079312;28;20024;-56
2022/01/15 01:31:31;;;;;;;67.18;19.63;;;1.10;99.90;;;;;;5075130;28;20061;-52
2022/01/15 01:34:05;;;;;;;61.03;18.83;;;1.10;99.90;;;;;;5094301;28;20024;-51
2022/01/15 01:39:11;;;;;;;56.13;17.95;;;1.00;99.90;;;;;;5094382;28;20024;-54
2022/01/15 01:41:41;;;;;;;75.78;20.55;;;1.00;99.90;;;;;;5094368;28;20033;-54
2022/01/15 01:44:09;;;;;;;65.93;20.50;;;1.00;99.90;;;;;;5094417;28;20111;-53
2022/01/15 01:49:01;;;;;;;75.97;21.00;;;1.00;99.90;;;;;;5094046;28;20631;-49
2022/01/15 01:51:34;;;;;;;63.92;21.40;;;0.90;99.90;;;;;;5094000;28;20154;-54
2022/01/15 01:54:02;;;;;;;65.93;22.00;;;1.00;99.90;;;;;;5094104;28;20488;-52
2022/01/15 01:56:29;;;;;;;59.75;20.60;;;1.00;99.90;;;;;;5094055;28;20027;-53
2022/01/15 01:58:54;;;;;;;65.10;21.58;;;1.00;99.90;;;;;;5075744;28;20116;-53
2022/01/15 02:01:20;;;;;;;75.95;22.58;;;1.00;99.90;;;;;;5093509;28;20434;-54
2022/01/15 02:03:46;;;;;;;57.33;22.67;;;1.00;99.90;;;;;;5075828;28;20027;-50
2022/01/15 02:06:11;;;;;;;64.30;21.35;;;1.10;99.90;;;;;;5093328;28;20476;-53
2022/01/15 02:08:38;;;;;;;58.10;23.08;;;1.10;99.90;;;;;;5093822;28;20456;-48
2022/01/15 02:11:06;;;;;;;57.53;20.00;;;1.20;99.90;;;;;;5093408;28;20372;-49
2022/01/15 02:13:33;;;;;;;57.60;20.40;;;1.10;99.90;;;;;;5093670;28;20105;-55
2022/01/15 02:16:00;;;;;;;43.50;18.05;;;1.10;99.90;;;;;;5093580;28;20020;-51
2022/01/15 02:18:26;;;;;;;53.53;20.15;;;1.00;99.90;;;;;;5093504;28;20032;-52
2022/01/15 02:23:32;;;;;;;46.30;18.23;;;1.00;99.90;;;;;;5093105;28;20074;-49
2022/01/15 02:23:49;;;;;;;46.35;20.45;;;0.90;99.90;;;;;;5093268;28;20032;-50
2022/01/15 02:26:18;;;;;;;45.08;18.90;;;0.80;99.90;;;;;;5093402;28;20062;-52
2022/01/15 02:28:55;;;;;;;48.47;19.35;;;0.80;99.90;;;;;;5093351;28;20095;-51
2022/01/15 02:31:23;;;;;;;45.63;20.27;;;0.80;99.90;;;;;;5093025;28;20051;-54
2022/01/15 02:33:51;;;;;;;40.08;17.27;;;0.70;99.90;;;;;;5093340;28;20484;-49
2022/01/15 02:36:25;;;;;;;45.42;19.13;;;0.70;99.90;;;;;;5093316;28;20031;-53
2022/01/15 02:38:51;;;;;;;46.97;19.33;;;0.70;99.90;;;;;;5093105;28;20399;-55
2022/01/15 02:41:31;;;;;;;49.35;19.33;;;0.70;99.90;;;;;;5092481;28;20023;-50
2022/01/15 02:43:59;;;;;;;47.35;20.80;;;0.70;99.90;;;;;;5093198;28;20081;-53
2022/01/15 02:48:55;;;;;;;51.92;20.42;;;0.80;99.90;;;;;;5093055;28;20028;-52
2022/01/15 02:51:33;;;;;;;53.97;19.50;;;0.70;99.90;;;;;;5092633;28;20067;-53
2022/01/15 02:53:59;;;;;;;58.25;19.38;;;0.70;99.90;;;;;;5092868;28;20418;-50
2022/01/15 02:56:31;;;;;;;61.40;21.88;;;0.60;99.90;;;;;;5092830;28;20024;-50
2022/01/15 02:58:57;;;;;;;71.60;21.13;;;0.60;99.90;;;;;;5074844;28;20016;-50
2022/01/15 03:01:23;;;;;;;62.08;20.48;;;0.60;99.90;;;;;;5092509;28;20444;-50
2022/01/15 03:03:49;;;;;;;69.72;21.15;;;0.60;99.90;;;;;;5092574;28;20390;-51
2022/01/15 03:06:17;;;;;;;67.45;21.67;;;0.60;99.90;;;;;;5092429;28;20035;-51
2022/01/15 03:08:44;;;;;;;60.20;20.77;;;0.60;99.90;;;;;;5092493;28;20034;-52
2022/01/15 03:11:11;;;;;;;64.15;20.77;;;0.70;99.90;;;;;;5092260;28;20101;-52
2022/01/15 03:13:38;;;;;;;57.30;20.52;;;0.70;99.90;;;;;;5092526;28;20028;-50
2022/01/15 03:16:05;;;;;;;56.10;19.80;;;0.70;99.90;;;;;;5092520;28;20410;-51
2022/01/15 03:18:30;;;;;;;54.25;16.92;;;0.80;99.90;;;;;;5092464;28;20451;-49
2022/01/15 03:20:56;;;;;;;58.22;20.85;;;0.90;99.90;;;;;;5092077;28;20055;-52
2022/01/15 03:23:21;;;;;;;53.70;18.70;;;0.80;99.90;;;;;;5074557;28;20024;-54
2022/01/15 03:25:47;;;;;;;48.35;18.20;;;0.90;99.90;;;;;;5092776;28;20085;-52
2022/01/15 03:28:13;;;;;;;45.33;17.88;;;0.90;99.90;;;;;;5092836;28;20081;-52
2022/01/15 03:30:39;;;;;;;56.55;18.42;;;1.00;99.90;;;;;;5092274;28;20035;-53
2022/01/15 03:33:05;;;;;;;49.53;17.80;;;1.00;99.90;;;;;;5092678;28;20036;-49
2022/01/15 03:35:30;;;;;;;47.63;18.85;;;1.10;99.90;;;;;;5096521;28;20077;-53
2022/01/15 03:37:56;;;;;;;44.38;16.55;;;1.10;99.90;;;;;;5093001;28;20032;-54
2022/01/15 03:40:22;;;;;;;51.47;17.77;;;1.00;99.90;;;;;;5074160;28;20024;-48
2022/01/15 03:42:48;;;;;;;47.90;16.90;;;1.10;99.90;;;;;;5073814;28;20521;-49
2022/01/15 03:45:14;;;;;;;52.17;18.48;;;1.10;99.90;;;;;;5092303;28;20036;-49
2022/01/15 03:47:42;;;;;;;50.40;18.08;;;1.10;99.90;;;;;;5092268;28;20103;-54
2022/01/15 03:50:08;;;;;;;52.35;19.75;;;1.10;99.90;;;;;;5091834;28;20032;-48
2022/01/15 03:52:34;;;;;;;40.17;17.45;;;1.20;99.90;;;;;;5073775;28;20112;-52
2022/01/15 03:55:00;;;;;;;43.78;17.45;;;1.10;99.90;;;;;;5091981;28;20020;-54
2022/01/15 03:57:25;;;;;;;53.03;19.20;;;1.10;99.90;;;;;;5074189;28;20012;-55
2022/01/15 03:59:51;;;;;;;47.58;17.77;;;1.10;99.90;;;;;;5092155;28;20032;-51
2022/01/15 04:02:16;;;;;;;58.70;20.90;;;1.10;99.90;;;;;;5074084;28;20065;-51
2022/01/15 04:04:42;;;;;;;70.68;20.15;;;1.10;99.90;;;;;;5092182;28;20396;-53
2022/01/15 04:07:07;;;;;;;64.43;20.98;;;1.10;99.90;;;;;;5092054;28;20108;-53
2022/01/15 04:09:33;;;;;;;61.60;19.38;;;1.00;99.90;;;;;;5091140;28;20024;-53
2022/01/15 04:11:58;;;;;;;48.95;19.48;;;1.00;99.90;;;;;;5091812;28;20037;-50
2022/01/15 04:14:24;;;;;;;50.40;20.50;;;0.90;99.90;;;;;;5091553;28;20495;-49
2022/01/15 04:16:49;;;;;;;59.08;21.00;;;0.90;99.90;;;;;;5073467;28;20506;-50
2022/01/15 04:19:15;;;;;;;60.63;19.63;;;1.00;99.90;;;;;;5091261;28;20495;-53
2022/01/15 04:21:41;;;;;;;65.35;21.08;;;1.00;99.90;;;;;;5091491;28;20029;-52
2022/01/15 04:24:07;;;;;;;53.08;19.67;;;1.10;99.90;;;;;;5091487;28;20024;-52
2022/01/15 04:26:32;;;;;;;60.13;21.85;;;1.10;99.90;;;;;;5073423;28;20488;-51
2022/01/15 04:29:03;;;;;;;61.58;22.30;;;1.10;99.90;;;;;;5091900;28;20059;-50
2022/01/15 04:31:35;;;;;;;60.13;21.63;;;1.10;99.90;;;;;;5091623;28;20028;-49
2022/01/15 04:34:01;;;;;;;65.13;21.05;;;1.10;99.90;;;;;;5091762;28;20475;-52
2022/01/15 04:36:26;;;;;;;55.25;19.52;;;1.10;99.90;;;;;;5091789;28;20028;-50
2022/01/15 04:38:52;;;;;;;63.17;21.88;;;1.10;99.90;;;;;;5091311;28;20396;-51
2022/01/15 04:41:17;;;;;;;72.95;18.15;;;1.20;99.90;;;;;;5091240;28;20020;-55
2022/01/15 04:43:43;;;;;;;59.60;20.20;;;1.20;99.90;;;;;;5073166;28;20387;-53
2022/01/15 04:46:08;;;;;;;63.15;19.95;;;1.10;99.90;;;;;;5091356;28;20137;-54
2022/01/15 04:48:34;;;;;;;64.70;20.85;;;1.20;99.90;;;;;;5091101;28;20457;-50
2022/01/15 04:50:59;;;;;;;54.42;20.15;;;1.10;99.90;;;;;;5090904;28;20028;-52
2022/01/15 04:53:25;;;;;;;61.53;20.85;;;1.10;99.90;;;;;;5091227;28;20081;-51
2022/01/15 04:55:50;;;;;;;57.20;21.08;;;1.10;99.90;;;;;;5073335;28;20020;-49
2022/01/15 04:58:16;;;;;;;65.97;21.27;;;1.10;99.90;;;;;;5091393;28;20028;-51
2022/01/15 05:00:41;;;;;;;56.75;20.02;;;1.00;99.90;;;;;;5091267;28;20100;-49
2022/01/15 05:03:07;;;;;;;60.17;20.45;;;1.00;99.90;;;;;;5073427;28;20123;-49
2022/01/15 05:05:33;;;;;;;57.67;19.80;;;1.00;99.90;;;;;;5093261;28;20031;-52
2022/01/15 05:07:58;;;;;;;61.20;21.35;;;1.00;99.90;;;;;;5094939;28;20035;-50
2022/01/15 05:10:27;;;;;;;67.35;22.95;;;1.00;99.90;;;;;;5094777;28;20028;-52
2022/01/15 05:12:58;;;;;;;71.07;21.88;;;1.00;99.90;;;;;;5094820;28;20024;-52
2022/01/15 05:15:23;;;;;;;68.60;22.13;;;1.10;99.90;;;;;;5094944;28;20050;-53
2022/01/15 05:17:53;;;;;;;66.82;22.67;;;1.00;99.90;;;;;;5076399;28;20031;-51
2022/01/15 05:20:21;;;;;;;72.95;22.02;;;1.10;99.90;;;;;;5094510;28;20028;-52
2022/01/15 05:22:47;;;;;;;69.32;22.15;;;1.10;99.90;;;;;;5094799;28;20016;-50
2022/01/15 05:25:14;;;;;;;73.28;21.20;;;1.20;99.90;;;;;;5076805;28;20153;-51
2022/01/15 05:27:41;;;;;;;65.15;21.90;;;1.20;99.90;;;;;;5076203;28;20028;-52
2022/01/15 05:30:08;;;;;;;75.68;20.90;;;1.10;99.90;;;;;;5094748;28;20024;-51
2022/01/15 05:32:34;;;;;;;64.13;22.25;;;1.10;99.90;;;;;;5094273;28;20028;-54
2022/01/15 05:35:00;;;;;;;77.22;21.90;;;1.20;99.90;;;;;;5076191;28;20027;-52
2022/01/15 05:37:26;;;;;;;68.43;20.75;;;1.20;99.90;;;;;;5094456;28;20587;-48
2022/01/15 05:39:52;;;;;;;65.10;20.65;;;1.20;99.90;;;;;;5075754;28;20023;-52
2022/01/15 05:42:17;;;;;;;71.50;23.17;;;1.10;99.90;;;;;;5094296;28;20022;-52
2022/01/15 05:44:43;;;;;;;69.78;21.02;;;1.20;99.90;;;;;;5076104;28;20131;-50
2022/01/15 05:47:09;;;;;;;70.93;21.85;;;1.20;99.90;;;;;;5094258;28;20067;-55
2022/01/15 05:49:35;;;;;;;77.75;21.85;;;1.30;99.90;;;;;;5093843;28;20043;-50
2022/01/15 05:52:01;;;;;;;67.28;24.20;;;1.30;99.90;;;;;;5094137;28;20475;-49
2022/01/15 05:54:26;;;;;;;73.95;27.30;;;1.30;99.90;;;;;;5094249;28;20086;-48
2022/01/15 05:56:52;;;;;;;72.75;26.38;;;1.30;99.90;;;;;;5094018;28;20020;-51
2022/01/15 05:59:17;;;;;;;68.30;23.83;;;1.20;99.90;;;;;;5093604;28;20020;-52
2022/01/15 06:01:43;;;;;;;72.20;19.67;;;1.30;99.90;;;;;;5093873;28;20103;-52
2022/01/15 06:04:09;;;;;;;57.22;18.98;;;1.40;99.90;;;;;;5093972;28;20023;-49
2022/01/15 06:06:34;;;;;;;56.45;20.15;;;1.40;99.90;;;;;;5093763;28;20032;-49
2022/01/15 06:09:02;;;;;;;62.08;20.83;;;1.40;99.90;;;;;;5094635;28;20039;-52
2022/01/15 06:11:28;;;;;;;50.08;18.83;;;1.40;99.90;;;;;;5093619;28;20023;-51
2022/01/15 06:13:53;;;;;;;52.10;19.00;;;1.40;99.90;;;;;;5093787;28;20032;-49
2022/01/15 06:16:19;;;;;;;58.80;21.65;;;1.50;99.90;;;;;;5093263;28;20107;-51
2022/01/15 06:18:45;;;;;;;42.53;16.70;;;1.50;99.90;;;;;;5093615;28;20101;-52
2022/01/15 06:21:10;;;;;;;46.50;18.25;;;1.50;99.90;;;;;;5093397;28;20023;-50
2022/01/15 06:23:36;;;;;;;50.35;18.52;;;1.50;99.90;;;;;;5093561;28;20038;-52
2022/01/15 06:26:01;;;;;;;50.13;17.42;;;1.50;99.90;;;;;;5093416;28;20020;-51
2022/01/15 06:28:27;;;;;;;41.85;17.52;;;1.50;99.90;;;;;;5093239;28;20024;-50
2022/01/15 06:30:52;;;;;;;45.25;17.42;;;1.50;99.90;;;;;;5093039;28;20464;-51
2022/01/15 06:33:18;;;;;;;38.85;15.38;;;1.50;99.90;;;;;;5075123;28;20035;-51
2022/01/15 06:35:43;;;;;;;44.47;17.65;;;1.60;99.90;;;;;;5093370;28;20021;-50
2022/01/15 06:38:09;;;;;;;31.88;14.38;;;1.50;99.90;;;;;;5075062;28;20024;-51
2022/01/15 06:40:35;;;;;;;33.00;14.52;;;1.50;99.90;;;;;;5092844;28;20503;-51
2022/01/15 06:43:01;;;;;;;36.22;14.55;;;1.50;99.90;;;;;;5074880;28;20028;-51
2022/01/15 06:45:30;;;;;;;32.55;12.90;;;1.60;99.90;;;;;;5093186;28;20491;-54
2022/01/15 06:47:56;;;;;;;34.97;13.95;;;1.60;99.90;;;;;;5092886;28;20032;-50
2022/01/15 06:50:24;;;;;;;31.00;13.93;;;1.50;99.90;;;;;;5111881;22;20503;-47
2022/01/15 06:52:50;;;;;;;30.73;13.82;;;1.50;99.90;;;;;;5092836;28;20024;-51
2022/01/15 06:55:16;;;;;;;27.63;13.20;;;1.60;99.90;;;;;;5091753;28;20031;-53
2022/01/15 06:57:42;;;;;;;24.67;12.45;;;1.50;99.90;;;;;;5092997;28;20099;-49
2022/01/15 07:00:09;;;;;;;27.33;11.95;;;1.60;99.90;;;;;;5092491;28;20038;-46
2022/01/15 07:02:34;;;;;;;30.45;12.43;;;1.60;99.90;;;;;;5092927;28;20024;-51
2022/01/15 07:05:01;;;;;;;32.72;12.82;;;1.60;99.90;;;;;;5092650;28;20494;-53
2022/01/15 07:07:27;;;;;;;27.08;13.20;;;1.70;99.90;;;;;;5092271;28;20024;-49
2022/01/15 07:09:52;;;;;;;24.85;12.57;;;1.70;99.90;;;;;;5092707;28;20035;-51
2022/01/15 07:12:18;;;;;;;27.52;12.98;;;1.70;99.90;;;;;;5091273;28;20077;-46
2022/01/15 07:14:44;;;;;;;30.90;14.10;;;1.70;99.90;;;;;;5092668;28;20028;-50
2022/01/15 07:17:10;;;;;;;28.00;12.38;;;1.80;99.90;;;;;;5091382;28;20427;-54
2022/01/15 07:19:36;;;;;;;22.48;12.13;;;1.70;99.90;;;;;;5092166;28;20044;-54
2022/01/15 07:22:02;;;;;;;21.27;9.93;;;1.70;99.90;;;;;;5091166;28;20480;-49
2022/01/15 07:24:28;;;;;;;25.85;12.20;;;1.80;99.90;;;;;;5092706;28;20476;-48
2022/01/15 07:26:54;;;;;;;27.50;13.63;;;1.70;99.90;;;;;;5092700;28;20031;-53
2022/01/15 07:29:19;;;;;;;20.05;10.85;;;1.80;99.90;;;;;;5091223;28;20043;-49
2022/01/15 07:31:46;;;;;;;20.52;11.10;;;1.80;99.90;;;;;;5091150;28;20373;-49
2022/01/15 07:34:12;;;;;;;22.92;10.90;;;1.70;99.90;;;;;;5092325;28;20020;-50
2022/01/15 07:36:39;;;;;;;24.10;11.80;;;1.70;99.90;;;;;;5092406;28;20420;-49
2022/01/15 07:39:06;;;;;;;22.83;12.25;;;1.70;99.90;;;;;;5092762;28;20028;-49
2022/01/15 07:41:32;;;;;;;25.00;14.18;;;1.80;99.90;;;;;;5093013;28;20024;-53
2022/01/15 07:43:57;;;;;;;26.25;13.35;;;1.70;99.90;;;;;;5092676;28;20103;-48
2022/01/15 07:46:23;;;;;;;25.70;12.90;;;1.80;99.90;;;;;;5092520;28;20106;-50
2022/01/15 07:48:49;;;;;;;27.83;12.73;;;1.80;99.90;;;;;;5092221;28;20111;-52
2022/01/15 07:51:15;;;;;;;20.73;10.82;;;1.70;99.90;;;;;;5091886;28;20059;-54
2022/01/15 07:53:40;;;;;;;29.77;12.00;;;1.70;99.90;;;;;;5092006;28;20027;-50
2022/01/15 07:56:06;;;;;;;26.15;12.82;;;1.80;99.90;;;;;;5092482;28;20502;-45
2022/01/15 07:58:31;;;;;;;25.48;12.88;;;1.90;99.90;;;;;;5092170;28;20031;-49
2022/01/15 08:00:57;;;;;;;21.98;12.13;;;1.80;99.90;;;;;;5091661;28;20020;-48
2022/01/15 08:03:23;;;;;;;26.30;13.05;;;;;;;;;;5092153;28;20042;-54
2022/01/15 08:05:48;;;;;;;22.00;11.60;;;2.00;99.90;;;;;;5091922;28;20024;-44
2022/01/15 08:08:15;;;;;;;27.02;12.93;;;2.00;99.90;;;;;;5091826;28;20490;-48
2022/01/15 08:10:42;;;;;;;26.10;13.05;;;2.00;99.90;;;;;;5090178;28;20452;-48
2022/01/15 08:13:08;;;;;;;28.73;13.40;;;2.00;99.90;;;;;;5090565;28;20027;-48
2022/01/15 08:15:33;;;;;;;23.30;11.82;;;2.00;99.90;;;;;;5091790;28;20020;-48
2022/01/15 08:18:00;;;;;;;26.23;13.40;;;2.00;99.90;;;;;;5091788;28;20030;-46
2022/01/15 08:20:26;;;;;;;26.02;13.02;;;2.00;99.90;;;;;;5091513;28;20028;-48
2022/01/15 08:22:51;;;;;;;24.85;12.05;;;2.00;99.90;;;;;;5091540;28;20077;-48
2022/01/15 08:25:18;;;;;;;25.80;13.52;;;2.00;99.90;;;;;;5091764;28;20107;-49
2022/01/15 08:27:44;;;;;;;22.85;11.77;;;2.00;99.90;;;;;;5091785;28;20399;-44
2022/01/15 08:30:10;;;;;;;26.52;13.85;;;2.10;99.90;;;;;;5091216;28;20081;-47
2022/01/15 08:32:36;;;;;;;25.75;12.77;;;2.10;99.90;;;;;;5091504;28;20020;-47
2022/01/15 08:35:03;;;;;;;26.17;13.98;;;2.10;99.90;;;;;;5091739;28;20020;-48
2022/01/15 08:37:29;;;;;;;25.08;13.65;;;2.10;99.90;;;;;;5090698;28;20020;-44
2022/01/15 08:39:54;;;;;;;25.92;14.13;;;2.20;99.90;;;;;;5091313;28;20467;-51
2022/01/15 08:42:20;;;;;;;27.58;14.00;;;2.20;99.90;;;;;;5095738;28;20433;-52
2022/01/15 08:44:46;;;;;;;25.63;14.38;;;2.20;99.90;;;;;;5095558;28;20024;-53
2022/01/15 08:47:12;;;;;;;32.90;16.25;;;2.30;99.90;;;;;;5095529;28;20027;-48
2022/01/15 08:49:38;;;;;;;26.17;14.70;;;2.20;99.90;;;;;;5095065;28;20032;-43
2022/01/15 08:52:04;;;;;;;25.50;13.43;;;2.30;99.90;;;;;;5094045;28;20392;-53
2022/01/15 08:54:30;;;;;;;22.92;12.32;;;2.30;99.90;;;;;;5095508;28;20494;-52
2022/01/15 08:56:55;;;;;;;22.15;12.70;;;2.30;99.90;;;;;;5095404;28;20024;-49
2022/01/15 08:59:23;;;;;;;18.95;11.35;;;2.20;99.90;;;;;;5094937;28;20026;-50
2022/01/15 09:01:49;;;;;;;17.85;11.07;;;2.20;99.90;;;;;;5095450;28;20467;-51
2022/01/15 09:04:14;;;;;;;22.52;11.25;;;2.20;99.90;;;;;;5095172;28;20068;-48
2022/01/15 09:06:43;;;;;;;23.58;10.98;;;2.30;99.90;;;;;;5094666;28;20055;-47
2022/01/15 09:09:09;;;;;;;21.08;12.43;;;2.20;99.90;;;;;;5094935;28;20034;-47
2022/01/15 09:11:34;;;;;;;19.05;11.32;;;2.20;99.90;;;;;;5094581;28;20092;-44
2022/01/15 09:14:00;;;;;;;18.63;11.43;;;2.30;99.90;;;;;;5095435;28;20638;-50
2022/01/15 09:16:25;;;;;;;16.63;10.73;;;2.30;99.90;;;;;;5095622;28;20108;-49
2022/01/15 09:18:51;;;;;;;15.60;10.55;;;2.40;99.90;;;;;;5095499;28;20080;-50
2022/01/15 09:21:17;;;;;;;16.73;9.82;;;2.40;99.90;;;;;;5093654;28;20012;-49
2022/01/15 09:23:42;;;;;;;18.17;10.68;;;2.30;99.90;;;;;;5095203;28;20024;-46
2022/01/15 09:26:19;;;;;;;20.33;11.73;;;2.30;99.90;;;;;;5095341;28;20050;-52
2022/01/15 09:31:29;;;;;;;14.18;9.93;;;2.30;99.90;;;;;;5094580;28;20035;-47
2022/01/15 09:33:55;;;;;;;17.08;10.85;;;2.20;99.90;;;;;;5094577;28;20032;-50
2022/01/15 09:36:20;;;;;;;15.65;9.93;;;2.20;99.90;;;;;;5094659;28;20020;-49
2022/01/15 09:38:46;;;;;;;16.92;10.20;;;2.30;99.90;;;;;;5094362;28;20020;-49
2022/01/15 09:41:13;;;;;;;18.35;11.38;;;2.40;99.90;;;;;;5094179;28;20032;-52
2022/01/15 09:43:39;;;;;;;17.85;11.13;;;2.30;99.90;;;;;;5094531;28;20024;-54
2022/01/15 09:46:06;;;;;;;17.80;11.90;;;2.30;99.90;;;;;;5094260;28;20509;-52
2022/01/15 09:48:32;;;;;;;17.83;11.05;;;2.40;99.90;;;;;;5094139;28;20472;-50
2022/01/15 09:50:57;;;;;;;18.25;10.70;;;2.40;99.90;;;;;;5092844;28;20077;-52
2022/01/15 09:53:24;;;;;;;17.60;11.07;;;2.30;99.90;;;;;;5093980;28;20053;-55
2022/01/15 09:55:49;;;;;;;20.77;12.68;;;2.40;99.90;;;;;;5094071;28;20515;-53
2022/01/15 09:58:16;;;;;;;18.80;12.15;;;2.30;99.90;;;;;;5094106;28;20028;-44
2022/01/15 10:00:42;;;;;;;19.88;13.80;;;2.30;99.90;;;;;;5093631;28;20475;-52
2022/01/15 10:03:08;;;;;;;18.92;12.27;;;2.30;99.90;;;;;;5093988;28;20050;-53
2022/01/15 10:05:33;;;;;;;22.17;14.05;;;2.30;99.90;;;;;;5093594;28;20020;-51
2022/01/15 10:08:00;;;;;;;24.05;14.48;;;2.30;99.90;;;;;;5093855;28;20029;-47
2022/01/15 10:10:32;;;;;;;22.60;14.07;;;2.30;99.90;;;;;;5093593;28;20098;-54
2022/01/15 10:13:17;;;;;;;22.63;14.50;;;2.30;99.90;;;;;;5093884;28;20148;-52
2022/01/15 10:15:45;;;;;;;24.05;15.32;;;2.30;99.90;;;;;;5093792;28;20039;-51
2022/01/15 10:18:22;;;;;;;20.17;12.70;;;2.40;99.90;;;;;;5093761;28;20021;-49
2022/01/15 10:20:48;;;;;;;21.60;13.15;;;2.40;99.90;;;;;;5093565;28;20102;-44
2022/01/15 10:23:16;;;;;;;19.02;11.15;;;2.40;99.90;;;;;;5093716;28;20432;-52
2022/01/15 10:25:42;;;;;;;21.20;13.50;;;2.40;99.90;;;;;;5093601;28;20027;-52
2022/01/15 10:28:09;;;;;;;19.73;12.93;;;2.40;99.90;;;;;;5093482;28;20041;-50
2022/01/15 10:30:35;;;;;;;18.00;12.02;;;2.40;99.90;;;;;;5090591;28;20024;-42
2022/01/15 10:33:04;;;;;;;18.95;12.75;;;2.50;99.90;;;;;;5073529;28;20032;-42
2022/01/15 10:35:34;;;;;;;17.48;12.48;;;2.50;99.90;;;;;;5073263;28;20020;-47
2022/01/15 10:38:09;;;;;;;20.40;13.43;;;2.40;99.90;;;;;;5073083;28;20041;-48
2022/01/15 10:40:38;;;;;;;20.90;12.73;;;2.50;99.90;;;;;;5075196;28;20021;-53
2022/01/15 10:43:04;;;;;;;23.00;11.60;;;2.50;99.90;;;;;;5085171;28;20265;-48
2022/01/15 10:45:31;;;;;;;19.05;11.55;;;2.50;99.90;;;;;;5088147;28;20024;-46
2022/01/15 10:48:00;;;;;;;27.60;14.45;;;2.50;99.90;;;;;;5078124;28;20029;-47
2022/01/15 10:50:32;;;;;;;24.58;14.48;;;2.50;99.90;;;;;;5077355;28;20261;-48
2022/01/15 10:53:04;;;;;;;26.63;14.02;;;2.50;99.90;;;;;;5085874;28;20036;-46
2022/01/15 10:55:32;;;;;;;25.00;13.82;;;2.40;99.90;;;;;;5079507;28;20234;-46
2022/01/15 10:58:00;;;;;;;16.40;11.50;;;2.50;99.90;;;;;;5080321;28;20028;-45
2022/01/15 11:00:42;;;;;;;20.45;12.30;;;2.40;99.90;;;;;;5075606;28;20032;-46
2022/01/15 11:03:10;;;;;;;25.67;15.00;;;2.30;99.90;;;;;;5077478;28;20365;-49
2022/01/15 11:05:39;;;;;;;25.08;14.77;;;2.30;99.90;;;;;;5093831;28;20503;-48
2022/01/15 11:08:11;;;;;;;85.10;45.72;;;2.30;99.90;;;;;;5094044;28;20545;-48
2022/01/15 11:10:56;;;;;;;21.52;13.40;;;2.40;99.90;;;;;;5094224;28;20024;-54
2022/01/15 11:13:46;;;;;;;19.80;12.63;;;2.50;99.90;;;;;;5092241;28;20100;-46
2022/01/15 11:16:15;;;;;;;23.35;13.88;;;2.60;99.90;;;;;;5093214;28;20020;-44
2022/01/15 11:18:43;;;;;;;25.17;14.10;;;2.60;99.90;;;;;;5092850;28;20028;-51
2022/01/15 11:21:10;;;;;;;25.38;14.18;;;2.70;99.90;;;;;;5092785;28;20395;-51
2022/01/15 11:23:37;;;;;;;23.35;13.25;;;2.70;99.90;;;;;;5093052;28;20057;-46
2022/01/15 11:26:08;;;;;;;16.38;11.52;;;2.80;99.90;;;;;;5092754;28;20482;-49
2022/01/15 11:28:34;;;;;;;16.73;11.50;;;2.70;99.90;;;;;;5091432;28;20024;-50
2022/01/15 11:31:08;;;;;;;17.88;11.30;;;2.60;99.90;;;;;;5092691;28;20051;-55
2022/01/15 11:33:37;;;;;;;18.55;11.02;;;2.60;99.90;;;;;;5075448;28;20598;-45
2022/01/15 11:36:05;;;;;;;17.88;11.40;;;2.60;99.90;;;;;;5078009;28;20027;-48
2022/01/15 11:38:36;;;;;;;20.65;12.82;;;2.60;99.90;;;;;;5088907;28;20437;-51
2022/01/15 11:41:02;;;;;;;17.02;12.18;;;2.70;99.90;;;;;;5071845;28;20025;-47
2022/01/15 11:43:30;;;;;;;16.90;12.30;;;2.70;99.90;;;;;;5072818;28;20477;-49
2022/01/15 11:45:58;;;;;;;19.48;13.18;;;2.70;99.90;;;;;;5087930;28;20076;-43
2022/01/15 11:48:24;;;;;;;15.82;10.68;;;2.80;99.90;;;;;;5086135;28;20024;-49
2022/01/15 11:51:26;;;;;;;15.90;11.35;;;2.80;99.90;;;;;;5071854;28;20064;-47
2022/01/15 11:53:54;;;;;;;13.68;10.32;;;2.70;99.90;;;;;;5040693;28;20530;-51
2022/01/15 11:56:22;;;;;;;17.20;10.50;;;2.80;99.90;;;;;;5067635;28;20079;-51
2022/01/15 11:58:48;;;;;;;12.20;9.07;;;2.90;99.90;;;;;;5071839;28;20495;-50
2022/01/15 12:01:40;;;;;;;14.23;10.35;;;2.90;99.90;;;;;;5071371;28;20020;-47
2022/01/15 12:04:30;;;;;;;14.85;11.52;;;2.90;99.90;;;;;;5079780;28;20134;-47
2022/01/15 12:07:05;;;;;;;17.90;13.05;;;2.90;99.90;;;;;;5088828;28;20062;-52
2022/01/15 12:09:37;;;;;;;18.80;12.97;;;3.00;99.90;;;;;;5075853;28;20028;-49
2022/01/15 12:12:39;;;;;;;15.75;10.38;;;3.00;99.90;;;;;;5075853;28;20266;-50
2022/01/15 12:15:08;;;;;;;14.02;9.57;;;2.90;99.90;;;;;;5087322;28;20456;-46
2022/01/15 12:17:39;;;;;;;17.15;9.75;;;2.90;99.90;;;;;;5092308;28;20028;-45
2022/01/15 12:20:32;;;;;;;18.52;11.48;;;3.00;99.90;;;;;;5087432;28;20437;-46
2022/01/15 12:23:00;;;;;;;19.98;13.52;;;2.80;99.90;;;;;;5092213;28;20058;-47
2022/01/15 12:25:26;;;;;;;20.85;14.00;;;2.80;99.90;;;;;;5074951;28;20020;-45
2022/01/15 12:28:06;;;;;;;20.05;13.73;;;2.90;99.90;;;;;;5088365;28;20024;-45
2022/01/15 12:30:34;;;;;;;26.10;14.30;;;2.90;99.90;;;;;;5085420;28;20064;-44
2022/01/15 12:33:03;;;;;;;21.58;13.77;;;2.80;99.90;;;;;;5069925;28;20024;-43
2022/01/15 12:35:32;;;;;;;18.85;13.68;;;2.80;99.90;;;;;;5071353;28;20023;-45
2022/01/15 12:38:07;;;;;;;22.30;12.55;;;2.70;99.90;;;;;;5071275;28;20028;-45
2022/01/15 12:40:38;;;;;;;22.80;12.70;;;2.70;99.90;;;;;;5069829;28;20024;-45
2022/01/15 12:43:10;;;;;;;22.80;12.82;;;2.70;99.90;;;;;;5080219;28;20059;-47
2022/01/15 12:45:38;;;;;;;16.30;11.57;;;2.80;99.90;;;;;;5074517;28;20024;-45
2022/01/15 12:48:04;;;;;;;15.50;11.77;;;2.80;99.90;;;;;;5074442;28;20106;-50
2022/01/15 12:50:49;;;;;;;14.93;10.80;;;2.80;99.90;;;;;;5087600;28;20036;-50
2022/01/15 12:53:16;;;;;;;17.30;10.40;;;2.80;99.90;;;;;;5075407;28;20025;-46
2022/01/15 12:55:42;;;;;;;17.58;11.90;;;2.80;99.90;;;;;;5106300;23;20112;-49
2022/01/15 12:58:09;;;;;;;17.67;10.48;;;2.90;99.90;;;;;;5110670;28;20037;-49
2022/01/15 13:00:37;;;;;;;15.60;10.93;;;2.90;99.90;;;;;;5110905;28;20023;-48
2022/01/15 13:03:09;;;;;;;15.07;10.98;;;2.90;99.90;;;;;;5110930;28;20125;-50
2022/01/15 13:05:40;;;;;;;14.43;11.38;;;2.80;99.90;;;;;;5088422;28;20033;-50